Time;durP1;ratioP1;P1;durP2;ratioP2;P2;SDS_P1;SDS_P2;PMS_P1;PMS_P2;Temp;Humidity;BMP_temperature;BMP_pressure;BME280_temperature;BME280_humidity;BME280_pressure;Samples;Min_cycle;Max_cycle;Signal;HPM_P1;HPM_P2
2022/06/25 00:00:59;;;;;;;8.18;5.07;;;24.60;1.00;;;;;;5148981;27;20391;-46
2022/06/25 00:03:24;;;;;;;4.50;2.97;;;24.40;1.00;;;;;;5155049;27;20023;-46
2022/06/25 00:05:50;;;;;;;3.20;1.50;;;24.40;1.00;;;;;;5138913;27;20062;-45
2022/06/25 00:08:15;;;;;;;4.70;1.73;;;24.40;1.00;;;;;;5155253;27;20027;-46
2022/06/25 00:10:42;;;;;;;2.72;1.40;;;24.60;1.00;;;;;;5154765;27;20414;-46
2022/06/25 00:13:07;;;;;;;4.13;1.58;;;24.40;1.00;;;;;;5155290;27;20023;-45
2022/06/25 00:15:33;;;;;;;2.15;1.25;;;24.50;1.00;;;;;;5154843;27;20022;-45
2022/06/25 00:17:59;;;;;;;2.63;1.80;;;24.30;1.00;;;;;;5154908;27;20029;-47
2022/06/25 00:20:24;;;;;;;4.97;1.63;;;24.50;1.00;;;;;;5154765;27;20105;-45
2022/06/25 00:22:50;;;;;;;2.40;1.60;;;24.40;1.00;;;;;;5152999;27;20026;-48
2022/06/25 00:25:16;;;;;;;1.77;1.40;;;24.40;1.00;;;;;;5150881;27;20034;-45
2022/06/25 00:27:41;;;;;;;2.63;1.42;;;24.30;1.00;;;;;;5149035;27;20110;-46
2022/06/25 00:30:08;;;;;;;2.95;1.75;;;24.40;1.00;;;;;;5150687;27;20021;-46
2022/06/25 00:32:34;;;;;;;2.03;1.25;;;24.30;1.00;;;;;;5140275;27;20018;-46
2022/06/25 00:35:01;;;;;;;2.42;1.42;;;24.40;1.00;;;;;;5153458;27;20023;-47
2022/06/25 00:37:35;;;;;;;3.30;1.45;;;24.40;1.00;;;;;;5154833;27;20018;-45
2022/06/25 00:40:01;;;;;;;3.67;1.30;;;24.30;1.00;;;;;;5133361;27;20046;-45
2022/06/25 00:42:27;;;;;;;4.53;1.60;;;24.30;1.00;;;;;;5152505;27;20353;-47
2022/06/25 00:44:53;;;;;;;2.67;1.10;;;24.20;1.00;;;;;;5152412;27;20037;-51
2022/06/25 00:50:41;;;;;;;3.97;1.80;;;24.10;1.00;;;;;;5135977;27;20124;-48
2022/06/25 00:53:11;;;;;;;4.35;1.90;;;24.20;1.00;;;;;;5132263;27;20388;-48
2022/06/25 00:55:38;;;;;;;3.67;1.48;;;24.20;1.00;;;;;;5147678;27;20026;-47
2022/06/25 00:58:08;;;;;;;2.05;1.52;;;24.10;1.00;;;;;;5152686;27;20114;-51
2022/06/25 01:00:34;;;;;;;5.75;1.60;;;24.20;1.00;;;;;;5151997;27;20391;-52
2022/06/25 01:03:00;;;;;;;4.53;1.23;;;24.00;1.00;;;;;;5153961;27;20035;-50
2022/06/25 01:05:25;;;;;;;3.63;1.20;;;24.10;1.00;;;;;;5143931;27;20066;-52
2022/06/25 01:07:51;;;;;;;1.90;1.00;;;24.10;1.00;;;;;;5154116;27;20025;-51
2022/06/25 01:10:17;;;;;;;2.55;1.40;;;24.00;1.00;;;;;;5152637;27;20038;-53
2022/06/25 01:12:43;;;;;;;3.40;1.20;;;23.90;1.00;;;;;;5153293;27;20598;-48
2022/06/25 01:15:14;;;;;;;2.75;1.45;;;24.10;1.00;;;;;;5152410;27;20049;-47
2022/06/25 01:17:51;;;;;;;2.72;1.20;;;23.90;1.00;;;;;;5152146;27;20034;-54
2022/06/25 01:20:20;;;;;;;3.92;1.48;;;24.10;1.00;;;;;;5152226;27;20037;-49
2022/06/25 01:22:45;;;;;;;1.00;0.90;;;24.00;1.00;;;;;;5153037;27;20041;-51
2022/06/25 01:25:12;;;;;;;2.60;1.38;;;24.10;1.00;;;;;;5152018;27;20031;-51
2022/06/25 01:27:38;;;;;;;2.47;1.48;;;23.90;1.00;;;;;;5153759;27;20042;-52
2022/06/25 01:30:07;;;;;;;1.85;1.17;;;23.80;1.00;;;;;;5152682;27;20098;-52
2022/06/25 01:32:32;;;;;;;2.60;1.55;;;24.00;1.00;;;;;;5153617;27;20027;-49
2022/06/25 01:34:58;;;;;;;1.73;1.63;;;24.10;1.00;;;;;;5143858;27;20072;-50
2022/06/25 01:37:24;;;;;;;1.55;1.20;;;24.00;1.00;;;;;;5146490;27;20026;-49
2022/06/25 01:39:53;;;;;;;1.40;1.08;;;23.90;1.00;;;;;;5151626;27;20058;-46
2022/06/25 01:45:03;;;;;;;2.15;1.00;;;23.80;1.00;;;;;;5150574;27;20515;-47
2022/06/25 01:47:29;;;;;;;1.70;0.80;;;23.90;1.00;;;;;;5140945;27;20018;-46
2022/06/25 01:49:54;;;;;;;2.33;1.33;;;23.80;1.00;;;;;;5151539;27;20027;-46
2022/06/25 01:52:20;;;;;;;4.63;1.23;;;23.70;1.00;;;;;;5153244;27;20023;-46
2022/06/25 01:54:46;;;;;;;0.93;0.60;;;23.70;1.00;;;;;;5140759;27;20090;-47
2022/06/25 01:57:11;;;;;;;1.65;1.00;;;23.60;1.00;;;;;;5153488;27;20026;-49
2022/06/25 01:59:37;;;;;;;4.88;1.73;;;23.60;1.00;;;;;;5152309;27;20083;-50
2022/06/25 02:02:02;;;;;;;1.40;0.82;;;23.70;1.00;;;;;;5137785;27;20388;-48
2022/06/25 02:04:28;;;;;;;2.97;1.17;;;23.60;1.00;;;;;;5151968;27;20030;-51
2022/06/25 02:06:54;;;;;;;2.10;1.08;;;23.60;1.00;;;;;;5153167;27;20387;-51
2022/06/25 02:09:19;;;;;;;1.15;1.02;;;23.60;1.00;;;;;;5151691;27;20547;-46
2022/06/25 02:11:45;;;;;;;2.95;1.20;;;23.80;1.00;;;;;;5136999;27;20156;-47
2022/06/25 02:14:10;;;;;;;2.83;1.20;;;23.60;1.00;;;;;;5135080;27;20027;-47
2022/06/25 02:16:36;;;;;;;2.00;1.00;;;23.60;1.00;;;;;;5152015;27;20011;-52
2022/06/25 02:19:02;;;;;;;2.42;1.42;;;23.70;1.00;;;;;;5153532;27;20058;-47
2022/06/25 02:21:27;;;;;;;2.38;1.48;;;23.50;1.00;;;;;;5151979;27;20019;-50
2022/06/25 02:23:53;;;;;;;2.72;1.70;;;23.50;1.00;;;;;;5152949;27;20091;-48
2022/06/25 02:26:19;;;;;;;2.17;1.30;;;23.50;1.00;;;;;;5151694;27;20034;-46
2022/06/25 02:28:44;;;;;;;3.08;1.60;;;23.50;1.00;;;;;;5151917;27;20475;-49
2022/06/25 02:31:10;;;;;;;1.95;1.38;;;23.40;1.00;;;;;;5152189;27;20023;-51
2022/06/25 02:33:35;;;;;;;1.10;0.90;;;23.40;1.00;;;;;;5142186;27;20489;-52
2022/06/25 02:36:01;;;;;;;1.40;1.30;;;23.50;1.00;;;;;;5145803;27;20030;-48
2022/06/25 02:38:26;;;;;;;3.45;1.30;;;23.40;1.00;;;;;;5152938;27;20043;-52
2022/06/25 02:40:52;;;;;;;4.55;0.93;;;23.50;1.00;;;;;;5149577;27;20068;-48
2022/06/25 02:43:18;;;;;;;5.32;1.00;;;23.50;1.00;;;;;;5151629;27;20030;-47
2022/06/25 02:45:43;;;;;;;1.20;0.80;;;23.40;1.00;;;;;;5152014;27;20365;-50
2022/06/25 02:48:10;;;;;;;1.98;1.05;;;23.40;1.00;;;;;;5133130;27;20019;-49
2022/06/25 02:50:36;;;;;;;3.42;1.33;;;23.30;1.00;;;;;;5140243;27;20368;-51
2022/06/25 02:53:02;;;;;;;4.32;1.08;;;23.30;1.00;;;;;;5153047;27;20023;-51
2022/06/25 03:00:56;;;;;;;1.00;1.00;;;23.20;1.00;;;;;;5155256;27;20258;-48
2022/06/25 03:03:22;;;;;;;1.95;1.05;;;23.20;1.00;;;;;;5156396;27;20110;-48
2022/06/25 03:05:47;;;;;;;1.60;1.05;;;23.20;1.00;;;;;;5155251;27;20034;-50
2022/06/25 03:08:13;;;;;;;0.88;0.80;;;23.30;1.00;;;;;;5156268;27;20023;-50
2022/06/25 03:10:39;;;;;;;1.33;1.15;;;23.40;1.00;;;;;;5152218;27;20046;-50
2022/06/25 03:13:04;;;;;;;1.80;1.00;;;23.30;1.00;;;;;;5156187;27;20380;-47
2022/06/25 03:15:30;;;;;;;2.22;1.00;;;23.10;1.00;;;;;;5155310;27;20071;-49
2022/06/25 03:17:56;;;;;;;1.08;0.82;;;23.30;1.00;;;;;;5143742;27;20432;-50
2022/06/25 03:20:21;;;;;;;2.53;1.02;;;23.20;1.00;;;;;;5151912;27;20125;-50
2022/06/25 03:22:47;;;;;;;1.20;0.90;;;23.10;1.00;;;;;;5156412;27;20030;-50
2022/06/25 03:25:12;;;;;;;1.90;1.08;;;23.20;1.00;;;;;;5154983;27;20436;-50
2022/06/25 03:27:38;;;;;;;1.70;1.10;;;23.30;1.00;;;;;;5156349;27;20158;-51
2022/06/25 03:30:04;;;;;;;2.22;1.00;;;23.10;1.00;;;;;;5155012;27;20038;-49
2022/06/25 03:32:30;;;;;;;2.72;1.15;;;23.20;1.00;;;;;;5155611;27;20048;-46
2022/06/25 03:34:55;;;;;;;0.98;0.90;;;23.10;1.00;;;;;;5149658;27;20019;-51
2022/06/25 03:37:21;;;;;;;1.80;0.80;;;23.10;1.00;;;;;;5151030;27;20026;-48
2022/06/25 03:39:47;;;;;;;3.35;1.00;;;23.10;1.00;;;;;;5152168;27;20069;-49
2022/06/25 03:42:12;;;;;;;2.08;0.90;;;23.20;1.00;;;;;;5155051;27;20571;-48
2022/06/25 03:44:38;;;;;;;1.88;1.05;;;23.20;1.00;;;;;;5139371;27;20031;-47
2022/06/25 03:47:04;;;;;;;1.98;0.85;;;23.10;1.00;;;;;;5154509;27;20058;-46
2022/06/25 03:49:30;;;;;;;3.85;1.20;;;23.20;1.00;;;;;;5150328;27;20387;-49
2022/06/25 03:51:56;;;;;;;1.90;1.20;;;23.10;1.00;;;;;;5140361;27;20022;-46
2022/06/25 03:54:21;;;;;;;3.00;1.13;;;23.10;1.00;;;;;;5146028;27;20106;-46
2022/06/25 03:56:47;;;;;;;1.33;1.10;;;23.00;1.00;;;;;;5150745;27;20028;-49
2022/06/25 03:59:13;;;;;;;2.00;1.35;;;23.20;1.00;;;;;;5155382;27;20049;-52
2022/06/25 04:01:39;;;;;;;3.10;1.25;;;23.00;1.00;;;;;;5154272;27;20027;-49
2022/06/25 04:04:05;;;;;;;2.58;1.10;;;23.20;1.00;;;;;;5155107;27;20022;-53
2022/06/25 04:06:31;;;;;;;2.40;1.48;;;23.10;1.00;;;;;;5153983;27;20039;-48
2022/06/25 04:08:56;;;;;;;1.92;1.25;;;23.10;1.00;;;;;;5155327;27;20015;-51
2022/06/25 04:11:22;;;;;;;4.35;1.25;;;23.20;1.00;;;;;;5153742;27;20043;-51
2022/06/25 04:13:48;;;;;;;1.50;1.15;;;23.20;1.00;;;;;;5146208;27;20027;-51
2022/06/25 04:16:13;;;;;;;2.35;0.90;;;23.10;1.00;;;;;;5136509;27;20114;-49
2022/06/25 04:18:39;;;;;;;3.78;0.98;;;23.00;1.00;;;;;;5144264;27;20026;-50
2022/06/25 04:21:04;;;;;;;2.55;1.02;;;23.00;1.00;;;;;;5151430;27;20429;-49
2022/06/25 04:23:30;;;;;;;1.50;0.90;;;23.00;1.00;;;;;;5142579;27;20022;-49
2022/06/25 04:25:56;;;;;;;2.13;1.30;;;23.10;1.00;;;;;;5145158;27;20039;-45
2022/06/25 04:31:06;;;;;;;1.50;1.00;;;22.90;1.00;;;;;;5144565;27;20387;-52
2022/06/25 04:33:31;;;;;;;2.40;0.80;;;23.00;1.00;;;;;;5154699;27;20114;-51
2022/06/25 04:35:57;;;;;;;1.80;1.00;;;23.00;1.00;;;;;;5152617;27;20026;-51
2022/06/25 04:38:22;;;;;;;4.60;1.13;;;23.00;1.00;;;;;;5154708;27;20104;-51
2022/06/25 04:40:48;;;;;;;2.80;0.80;;;22.80;1.00;;;;;;5154125;27;20034;-52
2022/06/25 04:43:14;;;;;;;2.85;1.20;;;23.00;1.00;;;;;;5138583;27;20406;-52
2022/06/25 04:45:39;;;;;;;3.22;0.98;;;22.90;1.00;;;;;;5153338;27;20097;-52
2022/06/25 04:48:05;;;;;;;1.02;0.75;;;22.90;1.00;;;;;;5154333;27;20034;-48
2022/06/25 04:50:31;;;;;;;2.00;1.00;;;22.90;1.00;;;;;;5153460;27;20019;-52
2022/06/25 04:52:56;;;;;;;2.92;0.95;;;23.00;1.00;;;;;;5154353;27;20034;-50
2022/06/25 04:55:22;;;;;;;3.22;0.90;;;22.90;1.00;;;;;;5153350;27;20148;-52
2022/06/25 04:57:48;;;;;;;1.15;0.90;;;23.10;1.00;;;;;;5154281;27;20051;-46
2022/06/25 05:00:14;;;;;;;1.05;0.95;;;23.00;1.00;;;;;;5153083;27;20054;-46
2022/06/25 05:02:39;;;;;;;1.15;0.98;;;22.90;1.00;;;;;;5154497;27;20459;-46
2022/06/25 05:05:06;;;;;;;3.05;0.98;;;23.10;1.00;;;;;;5150669;27;20015;-49
2022/06/25 05:07:32;;;;;;;2.08;0.98;;;23.00;1.00;;;;;;5154112;27;20022;-50
2022/06/25 05:09:58;;;;;;;1.73;0.90;;;23.10;1.00;;;;;;5154000;27;20442;-49
2022/06/25 05:15:08;;;;;;;2.40;0.85;;;23.00;1.00;;;;;;5153243;27;20087;-47
2022/06/25 05:17:34;;;;;;;1.92;0.80;;;23.00;1.00;;;;;;5152366;27;20472;-45
2022/06/25 05:20:00;;;;;;;0.75;0.75;;;23.20;1.00;;;;;;5153858;27;20031;-50
2022/06/25 05:22:26;;;;;;;4.30;1.52;;;23.10;1.00;;;;;;5152836;27;20098;-49
2022/06/25 05:24:52;;;;;;;3.08;1.17;;;23.30;1.00;;;;;;5153535;27;20062;-49
2022/06/25 05:27:18;;;;;;;2.70;1.05;;;22.90;1.00;;;;;;5138917;27;20384;-46
2022/06/25 05:29:44;;;;;;;4.78;1.35;;;23.00;1.00;;;;;;5153714;27;20512;-47
2022/06/25 05:32:09;;;;;;;2.63;1.05;;;23.30;1.00;;;;;;5152616;27;20035;-46
2022/06/25 05:34:35;;;;;;;2.92;0.95;;;23.10;1.00;;;;;;5151338;27;20022;-45
2022/06/25 05:37:00;;;;;;;2.13;1.08;;;23.10;1.00;;;;;;5152596;27;20039;-46
2022/06/25 05:39:26;;;;;;;2.75;1.23;;;23.30;1.00;;;;;;5153372;27;20011;-52
2022/06/25 05:41:52;;;;;;;2.47;0.85;;;23.20;1.00;;;;;;5140015;27;20031;-52
2022/06/25 05:44:17;;;;;;;2.15;0.82;;;23.20;1.00;;;;;;5150197;27;20015;-47
2022/06/25 05:46:43;;;;;;;1.67;1.08;;;23.30;1.00;;;;;;5152481;27;20074;-49
2022/06/25 05:49:08;;;;;;;2.95;1.30;;;23.40;1.00;;;;;;5143975;27;20102;-51
2022/06/25 05:51:34;;;;;;;1.90;1.10;;;23.40;1.00;;;;;;5149366;27;20099;-51
2022/06/25 05:53:59;;;;;;;3.22;1.25;;;23.20;1.00;;;;;;5153510;27;20019;-50
2022/06/25 05:56:25;;;;;;;4.25;1.38;;;23.30;1.00;;;;;;5145295;27;20027;-51
2022/06/25 05:58:51;;;;;;;3.50;1.50;;;23.30;1.00;;;;;;5153403;27;20133;-50
2022/06/25 06:01:16;;;;;;;2.50;1.60;;;23.30;1.00;;;;;;5144747;27;20023;-48
2022/06/25 06:03:42;;;;;;;2.55;1.10;;;23.50;1.00;;;;;;5151237;27;20030;-46
2022/06/25 06:06:07;;;;;;;4.28;1.40;;;23.30;1.00;;;;;;5142251;27;20494;-45
2022/06/25 06:08:33;;;;;;;3.90;1.60;;;23.40;1.00;;;;;;5153343;27;20031;-49
2022/06/25 06:10:58;;;;;;;1.65;1.23;;;23.40;1.00;;;;;;5151823;27;20507;-45
2022/06/25 06:13:24;;;;;;;2.47;1.63;;;23.40;1.00;;;;;;5153038;27;20097;-45
2022/06/25 06:15:50;;;;;;;2.70;1.90;;;23.50;1.00;;;;;;5146002;27;20023;-48
2022/06/25 06:18:15;;;;;;;2.03;1.40;;;23.40;1.00;;;;;;5150676;27;20062;-48
2022/06/25 06:20:41;;;;;;;2.60;1.63;;;23.40;1.00;;;;;;5137387;27;20018;-49
2022/06/25 06:23:06;;;;;;;5.15;2.13;;;23.60;1.00;;;;;;5152292;27;20023;-45
2022/06/25 06:25:38;;;;;;;3.17;1.58;;;23.50;1.00;;;;;;5152459;27;20483;-45
2022/06/25 06:28:04;;;;;;;2.38;1.20;;;23.60;1.00;;;;;;5153766;27;20033;-46
2022/06/25 06:30:30;;;;;;;2.72;1.35;;;23.50;1.00;;;;;;5156948;27;20019;-45
2022/06/25 06:32:55;;;;;;;3.20;1.75;;;23.60;1.00;;;;;;5147401;27;20116;-51
2022/06/25 06:35:21;;;;;;;3.08;1.58;;;23.50;1.00;;;;;;5150203;27;20030;-52
2022/06/25 06:37:46;;;;;;;2.15;1.10;;;23.60;1.00;;;;;;5156340;27;20375;-51
2022/06/25 06:40:12;;;;;;;2.55;1.33;;;23.70;1.00;;;;;;5148442;27;20088;-49
2022/06/25 06:42:38;;;;;;;2.20;0.98;;;23.60;1.00;;;;;;5151619;27;20019;-52
2022/06/25 06:45:04;;;;;;;3.20;1.42;;;23.80;1.00;;;;;;5156926;27;20376;-48
2022/06/25 06:47:29;;;;;;;2.67;1.15;;;23.90;1.00;;;;;;5149854;27;20370;-47
2022/06/25 06:49:55;;;;;;;2.72;1.20;;;23.80;1.00;;;;;;5147980;27;20042;-49
2022/06/25 06:52:21;;;;;;;5.35;1.30;;;23.80;1.00;;;;;;5155794;27;20071;-49
2022/06/25 06:54:46;;;;;;;3.38;1.23;;;23.80;1.00;;;;;;5156524;27;20106;-46
2022/06/25 06:57:12;;;;;;;2.88;0.98;;;23.80;1.00;;;;;;5155913;27;20026;-53
2022/06/25 06:59:38;;;;;;;2.30;1.10;;;23.80;1.00;;;;;;5154468;27;20444;-52
2022/06/25 07:02:04;;;;;;;3.88;1.52;;;23.80;1.00;;;;;;5155676;27;20083;-50
2022/06/25 07:04:29;;;;;;;2.15;1.15;;;23.80;1.00;;;;;;5156267;27;20044;-52
2022/06/25 07:06:55;;;;;;;2.17;1.20;;;23.90;1.00;;;;;;5155454;27;20035;-49
2022/06/25 07:09:21;;;;;;;4.25;1.10;;;24.00;1.00;;;;;;5136721;27;20043;-46
2022/06/25 07:11:47;;;;;;;4.13;0.80;;;23.90;1.00;;;;;;5144157;27;20074;-51
2022/06/25 07:14:13;;;;;;;2.47;1.00;;;24.00;1.00;;;;;;5156129;27;20027;-51
2022/06/25 07:16:39;;;;;;;1.50;1.40;;;24.00;1.00;;;;;;5155644;27;20048;-51
2022/06/25 07:19:04;;;;;;;3.00;1.10;;;24.10;1.00;;;;;;5155383;27;20086;-47
2022/06/25 07:21:30;;;;;;;1.35;1.20;;;24.10;1.00;;;;;;5155221;27;20092;-48
2022/06/25 07:23:56;;;;;;;2.90;1.20;;;24.20;1.00;;;;;;5154549;27;20026;-47
2022/06/25 07:26:22;;;;;;;3.45;0.93;;;24.40;1.00;;;;;;5144023;27;20038;-46
2022/06/25 07:28:48;;;;;;;1.23;1.00;;;24.20;1.00;;;;;;5148943;27;20471;-46
2022/06/25 07:31:14;;;;;;;1.95;1.13;;;24.40;1.00;;;;;;5149689;27;20034;-46
2022/06/25 07:33:40;;;;;;;0.90;0.90;;;24.40;1.00;;;;;;5151299;27;20022;-48
2022/06/25 07:36:07;;;;;;;3.40;1.42;;;24.30;1.00;;;;;;5149847;27;20019;-48
2022/06/25 07:38:33;;;;;;;3.65;1.40;;;24.40;1.00;;;;;;5154650;27;20436;-48
2022/06/25 07:40:59;;;;;;;2.40;1.42;;;24.40;1.00;;;;;;5154556;27;20067;-47
2022/06/25 07:43:27;;;;;;;2.40;1.27;;;24.50;1.00;;;;;;5154860;27;20014;-47
2022/06/25 07:45:53;;;;;;;3.72;1.25;;;24.60;1.00;;;;;;5155307;27;20097;-49
2022/06/25 07:48:19;;;;;;;2.88;0.98;;;24.80;1.00;;;;;;5154843;27;20484;-46
2022/06/25 07:53:29;;;;;;;1.90;1.00;;;24.70;1.00;;;;;;5153038;27;20049;-48
2022/06/25 07:55:55;;;;;;;2.55;1.55;;;24.70;1.00;;;;;;5155483;27;20511;-50
2022/06/25 07:58:23;;;;;;;1.70;1.60;;;25.00;1.00;;;;;;5138455;27;20469;-50
2022/06/25 08:00:49;;;;;;;2.45;1.40;;;24.70;1.00;;;;;;5146931;27;20091;-48
2022/06/25 08:03:14;;;;;;;2.17;1.30;;;25.00;1.00;;;;;;5152773;27;20026;-46
2022/06/25 08:05:40;;;;;;;5.57;1.20;;;25.00;1.00;;;;;;5149075;27;20035;-52
2022/06/25 08:08:08;;;;;;;4.32;1.30;;;25.00;1.00;;;;;;5151385;27;20110;-52
2022/06/25 08:10:34;;;;;;;1.27;1.17;;;25.00;1.00;;;;;;5155502;27;20046;-52
2022/06/25 08:13:00;;;;;;;1.52;1.00;;;25.20;1.00;;;;;;5143823;27;20027;-52
2022/06/25 08:15:25;;;;;;;1.08;1.00;;;25.20;1.00;;;;;;5137212;27;20122;-52
2022/06/25 08:17:52;;;;;;;2.20;1.20;;;25.10;1.00;;;;;;5139595;27;20464;-53
2022/06/25 08:20:17;;;;;;;3.53;1.05;;;25.30;1.00;;;;;;5147665;27;20211;-48
2022/06/25 08:22:43;;;;;;;2.47;1.17;;;25.20;1.00;;;;;;5153563;27;20460;-48
2022/06/25 08:25:09;;;;;;;3.67;1.40;;;25.30;1.00;;;;;;5154186;27;20023;-54
2022/06/25 08:27:51;;;;;;;1.60;1.30;;;25.40;1.00;;;;;;5153683;27;20031;-53
2022/06/25 08:30:18;;;;;;;2.33;1.27;;;25.20;1.00;;;;;;5154318;27;20376;-52
2022/06/25 08:32:44;;;;;;;3.45;1.17;;;25.40;1.00;;;;;;5153282;27;20046;-50
2022/06/25 08:35:10;;;;;;;4.18;1.63;;;25.40;1.00;;;;;;5153970;27;20034;-51
2022/06/25 08:37:44;;;;;;;3.13;1.45;;;25.30;1.00;;;;;;5145857;27;20046;-48
2022/06/25 08:40:10;;;;;;;4.20;1.38;;;25.30;1.00;;;;;;5150363;27;20023;-48
2022/06/25 08:42:36;;;;;;;4.85;1.70;;;25.50;1.00;;;;;;5153148;27;20034;-49
2022/06/25 08:45:03;;;;;;;5.60;1.92;;;25.50;1.00;;;;;;5154346;27;20066;-50
2022/06/25 08:47:29;;;;;;;2.72;2.08;;;25.40;1.00;;;;;;5143453;27;20038;-51
2022/06/25 08:49:55;;;;;;;3.35;1.60;;;25.40;1.00;;;;;;5148508;27;20011;-51
2022/06/25 08:52:21;;;;;;;5.50;2.22;;;25.50;1.00;;;;;;5138793;27;20108;-47
2022/06/25 08:54:48;;;;;;;4.75;2.22;;;25.70;1.00;;;;;;5153780;27;20015;-51
2022/06/25 08:57:14;;;;;;;5.85;2.58;;;25.60;1.00;;;;;;5146088;27;20445;-47
2022/06/25 08:59:40;;;;;;;5.00;3.10;;;25.80;1.00;;;;;;5148065;27;20464;-48
2022/06/25 09:02:05;;;;;;;5.65;2.28;;;25.70;1.00;;;;;;5152779;27;20105;-47
2022/06/25 09:04:34;;;;;;;5.72;2.20;;;25.70;1.00;;;;;;5145590;27;20023;-48
2022/06/25 09:07:13;;;;;;;5.68;2.05;;;25.70;1.00;;;;;;5135649;27;20037;-46
2022/06/25 09:09:44;;;;;;;4.22;1.90;;;26.00;1.00;;;;;;5138181;27;20370;-48
2022/06/25 09:12:13;;;;;;;1.95;1.70;;;25.90;1.00;;;;;;5151935;27;20420;-47
2022/06/25 09:14:39;;;;;;;3.22;1.70;;;26.00;1.00;;;;;;5153561;27;20382;-46
2022/06/25 09:17:09;;;;;;;4.68;1.85;;;26.10;1.00;;;;;;5152567;27;20102;-46
2022/06/25 09:19:40;;;;;;;4.72;2.10;;;26.00;1.00;;;;;;5153198;27;20015;-48
2022/06/25 09:22:11;;;;;;;4.38;2.10;;;26.10;1.00;;;;;;5150018;27;20023;-47
2022/06/25 09:24:54;;;;;;;4.93;2.22;;;26.20;1.00;;;;;;5153347;27;20022;-48
2022/06/25 09:27:36;;;;;;;5.05;1.98;;;26.30;1.00;;;;;;5152150;27;20030;-50
2022/06/25 09:30:12;;;;;;;7.57;2.65;;;26.30;1.00;;;;;;5153280;27;20033;-52
2022/06/25 09:32:46;;;;;;;4.97;2.45;;;26.50;1.00;;;;;;5149547;27;20106;-51
2022/06/25 09:35:30;;;;;;;4.45;2.40;;;26.40;1.00;;;;;;5152858;27;20070;-52
2022/06/25 09:38:16;;;;;;;6.35;2.33;;;26.40;1.00;;;;;;5143883;27;20456;-49
2022/06/25 09:40:50;;;;;;;4.15;2.42;;;26.60;1.00;;;;;;5137225;27;20063;-52
2022/06/25 09:43:18;;;;;;;8.20;2.45;;;26.60;1.00;;;;;;5152418;27;20018;-49
2022/06/25 09:45:47;;;;;;;5.03;2.30;;;26.80;1.00;;;;;;5153303;27;20041;-49
2022/06/25 09:48:29;;;;;;;6.70;3.50;;;26.80;1.00;;;;;;5152292;27;20353;-52
2022/06/25 09:51:16;;;;;;;6.75;3.38;;;26.90;1.00;;;;;;5151635;27;20079;-50
2022/06/25 09:53:55;;;;;;;5.40;2.95;;;26.90;1.00;;;;;;5149251;27;20027;-50
2022/06/25 09:56:23;;;;;;;4.60;2.45;;;26.80;1.00;;;;;;5151230;27;20018;-46
2022/06/25 09:58:50;;;;;;;6.03;2.75;;;27.10;1.00;;;;;;5142077;27;20035;-46
2022/06/25 10:01:18;;;;;;;5.90;2.40;;;27.10;1.00;;;;;;5145893;27;20023;-47
2022/06/25 10:03:46;;;;;;;6.43;2.45;;;27.10;1.00;;;;;;5144592;27;20035;-51
2022/06/25 10:06:19;;;;;;;4.10;2.53;;;27.00;1.00;;;;;;5152171;27;20037;-53
2022/06/25 10:08:52;;;;;;;7.03;2.70;;;26.90;1.00;;;;;;5133050;27;20050;-46
2022/06/25 10:11:20;;;;;;;5.68;2.88;;;27.00;1.00;;;;;;5152383;27;20091;-48
2022/06/25 10:13:48;;;;;;;4.72;2.42;;;27.00;1.00;;;;;;5133744;27;20026;-49
2022/06/25 10:16:18;;;;;;;7.07;2.88;;;27.10;1.00;;;;;;5152681;27;20045;-50
2022/06/25 10:18:44;;;;;;;7.22;3.13;;;27.20;1.00;;;;;;5150253;27;20037;-52
2022/06/25 10:21:12;;;;;;;7.80;2.95;;;27.30;1.00;;;;;;5141095;27;20027;-48
2022/06/25 10:23:38;;;;;;;6.97;2.78;;;27.50;1.00;;;;;;5151723;27;20102;-51
2022/06/25 10:26:05;;;;;;;8.60;3.15;;;27.70;1.00;;;;;;5143083;27;20035;-47
2022/06/25 10:28:35;;;;;;;6.05;2.55;;;27.70;1.00;;;;;;5146322;27;20041;-50
2022/06/25 10:31:05;;;;;;;8.90;2.83;;;27.60;1.00;;;;;;5144376;27;20477;-45
2022/06/25 10:33:59;;;;;;;4.28;2.22;;;27.70;1.00;;;;;;5144609;27;20069;-46
2022/06/25 10:36:53;;;;;;;5.68;2.78;;;27.50;1.00;;;;;;5129920;27;20039;-46
2022/06/25 10:39:27;;;;;;;3.78;2.42;;;27.40;1.00;;;;;;5150299;27;20483;-49
2022/06/25 10:45:04;;;;;;;5.63;2.67;;;27.70;1.00;;;;;;5150856;27;20418;-47
2022/06/25 10:47:37;;;;;;;5.60;2.90;;;27.80;1.00;;;;;;5152211;27;20030;-52
2022/06/25 10:50:21;;;;;;;7.45;2.72;;;28.10;1.00;;;;;;5150927;27;20019;-50
2022/06/25 10:53:03;;;;;;;4.85;2.53;;;28.20;1.00;;;;;;5152338;27;20023;-49
2022/06/25 10:55:29;;;;;;;4.88;2.83;;;28.40;1.00;;;;;;5145229;27;20038;-52
2022/06/25 10:58:18;;;;;;;4.95;2.33;;;28.50;1.00;;;;;;5152208;27;20125;-49
2022/06/25 11:00:55;;;;;;;6.25;2.58;;;28.70;1.00;;;;;;5147990;27;20131;-48
2022/06/25 11:03:27;;;;;;;5.93;2.33;;;28.80;1.00;;;;;;5137958;27;20042;-49
2022/06/25 11:05:54;;;;;;;5.95;2.75;;;28.90;1.00;;;;;;5151088;27;20507;-47
2022/06/25 11:08:22;;;;;;;5.45;3.00;;;28.90;1.00;;;;;;5151953;27;20023;-47
2022/06/25 11:10:48;;;;;;;5.72;2.58;;;28.60;1.00;;;;;;5150753;27;20051;-46
2022/06/25 11:13:14;;;;;;;5.15;2.60;;;28.50;1.00;;;;;;5152080;27;20527;-47
2022/06/25 11:15:41;;;;;;;6.65;2.45;;;28.80;1.00;;;;;;5153179;27;20106;-51
2022/06/25 11:18:11;;;;;;;4.32;2.63;;;28.80;1.00;;;;;;5156061;27;20023;-49
2022/06/25 11:20:37;;;;;;;6.45;2.33;;;28.90;1.00;;;;;;5155550;27;20030;-48
2022/06/25 11:23:04;;;;;;;6.22;2.70;;;29.90;1.00;;;;;;5156021;27;20038;-50
2022/06/25 11:28:49;;;;;;;7.00;2.20;;;34.50;1.00;;;;;;5146465;27;20030;-47
2022/06/25 11:31:26;;;;;;;6.05;2.22;;;34.70;1.00;;;;;;5150256;27;20018;-49
2022/06/25 11:33:53;;;;;;;3.65;2.03;;;35.40;1.00;;;;;;5136913;27;20031;-49
2022/06/25 11:36:20;;;;;;;3.08;2.60;;;35.50;1.00;;;;;;5140944;27;20007;-49
2022/06/25 11:38:52;;;;;;;4.75;2.55;;;35.30;1.00;;;;;;5147404;27;20470;-47
2022/06/25 11:41:29;;;;;;;4.50;1.92;;;35.20;1.00;;;;;;5142889;27;20464;-47
2022/06/25 11:43:55;;;;;;;2.40;2.20;;;33.60;1.00;;;;;;5153811;27;20079;-47
2022/06/25 11:46:21;;;;;;;3.38;2.33;;;33.30;1.00;;;;;;5149240;27;20038;-49
2022/06/25 11:48:48;;;;;;;4.68;2.60;;;33.80;1.00;;;;;;5150197;27;20030;-48
2022/06/25 11:51:23;;;;;;;6.35;2.90;;;34.10;1.00;;;;;;5147599;27;20091;-48
2022/06/25 11:53:49;;;;;;;4.68;3.30;;;34.70;1.00;;;;;;5149677;27;20118;-48
2022/06/25 11:56:14;;;;;;;7.60;4.03;;;35.40;1.00;;;;;;5145542;27;20432;-50
2022/06/25 11:58:41;;;;;;;2.95;2.58;;;36.00;1.00;;;;;;5154416;27;20035;-49
2022/06/25 12:01:07;;;;;;;3.97;2.83;;;36.40;1.00;;;;;;5153197;27;20018;-48
2022/06/25 12:03:33;;;;;;;8.38;3.20;;;36.50;1.00;;;;;;5140648;27;20565;-48
2022/06/25 12:06:00;;;;;;;4.68;3.03;;;35.90;1.00;;;;;;5154725;27;20023;-53
2022/06/25 12:08:27;;;;;;;4.80;2.92;;;36.20;1.00;;;;;;5154485;27;20023;-49
2022/06/25 12:10:54;;;;;;;3.33;2.90;;;36.20;1.00;;;;;;5149786;27;20043;-50
2022/06/25 12:13:21;;;;;;;6.20;3.03;;;34.60;1.00;;;;;;5144561;27;20015;-50
2022/06/25 12:15:47;;;;;;;3.75;2.60;;;33.60;1.00;;;;;;5154123;27;20033;-48
2022/06/25 12:18:13;;;;;;;7.40;2.90;;;33.00;1.00;;;;;;5153205;27;20384;-50
2022/06/25 12:20:55;;;;;;;5.35;2.58;;;32.50;1.00;;;;;;5154305;27;20030;-50
2022/06/25 12:23:20;;;;;;;4.10;2.22;;;32.30;1.00;;;;;;5149999;27;20476;-50
2022/06/25 12:25:47;;;;;;;2.90;2.38;;;31.90;1.00;;;;;;5138556;27;20067;-49
2022/06/25 12:28:13;;;;;;;2.67;2.40;;;31.60;1.00;;;;;;5152079;27;20027;-48
2022/06/25 12:30:39;;;;;;;5.47;2.40;;;31.50;1.00;;;;;;5138869;27;20041;-49
2022/06/25 12:33:13;;;;;;;4.57;2.45;;;31.40;1.00;;;;;;5152290;27;20026;-51
2022/06/25 12:35:43;;;;;;;5.25;1.98;;;31.30;1.00;;;;;;5154663;27;20349;-48
2022/06/25 12:38:14;;;;;;;2.28;1.90;;;31.10;1.00;;;;;;5151525;27;20503;-50
2022/06/25 12:40:46;;;;;;;2.50;1.90;;;31.10;1.00;;;;;;5146241;27;20495;-49
2022/06/25 12:43:13;;;;;;;4.72;2.40;;;31.20;1.00;;;;;;5153062;27;20027;-54
2022/06/25 12:45:41;;;;;;;5.10;2.03;;;31.20;1.00;;;;;;5139717;27;20042;-46
2022/06/25 12:48:10;;;;;;;2.40;1.90;;;31.10;1.00;;;;;;5148888;27;20034;-49
2022/06/25 12:50:38;;;;;;;4.00;2.17;;;31.20;1.00;;;;;;5145594;27;20027;-50
2022/06/25 12:53:11;;;;;;;3.90;2.22;;;31.20;1.00;;;;;;5148825;27;20045;-51
2022/06/25 12:55:40;;;;;;;3.77;1.80;;;31.10;1.00;;;;;;5153833;27;20147;-47
2022/06/25 12:58:08;;;;;;;2.47;1.52;;;31.30;1.00;;;;;;5152328;27;20459;-50
2022/06/25 13:00:37;;;;;;;3.95;2.13;;;31.10;1.00;;;;;;5145846;27;20026;-47
2022/06/25 13:03:05;;;;;;;3.42;1.98;;;30.90;1.00;;;;;;5139986;27;20030;-52
2022/06/25 13:05:30;;;;;;;3.80;1.77;;;30.90;1.00;;;;;;5138954;27;20035;-53
2022/06/25 13:07:56;;;;;;;3.03;2.45;;;30.80;1.00;;;;;;5135495;27;20021;-52
2022/06/25 13:10:22;;;;;;;5.00;1.85;;;31.00;1.00;;;;;;5131537;27;20407;-53
2022/06/25 13:12:50;;;;;;;2.88;2.00;;;30.90;1.00;;;;;;5131385;27;20019;-51
2022/06/25 13:15:16;;;;;;;5.63;2.38;;;31.00;1.00;;;;;;5138801;27;20023;-49
2022/06/25 13:17:42;;;;;;;4.30;2.03;;;31.10;1.00;;;;;;5153538;27;20019;-50
2022/06/25 13:20:09;;;;;;;5.70;2.45;;;31.30;1.00;;;;;;5152076;27;20067;-51
2022/06/25 13:22:35;;;;;;;2.42;2.22;;;31.30;1.00;;;;;;5152617;27;20417;-51
2022/06/25 13:25:01;;;;;;;4.75;2.05;;;31.10;1.00;;;;;;5151567;27;20026;-53